createdAt,value
2022-08-14T03:37:38.575Z,0.00
2022-08-14T03:39:12.601Z,0.00
2022-08-14T03:39:13.948Z,0.00
2022-08-14T03:40:00.721Z,0.00
2022-08-14T03:40:59.395Z,0.00
2022-08-14T03:48:59.314Z,0.00
2022-08-14T03:49:59.302Z,0.00
2022-08-14T03:50:59.294Z,0.00
2022-08-14T03:53:59.263Z,0.00
2022-08-14T03:55:59.243Z,0.00
2022-08-14T03:56:59.232Z,0.00
2022-08-14T03:58:00.530Z,0.00
2022-08-14T03:58:59.211Z,0.00
2022-08-14T03:59:59.201Z,0.00
2022-08-14T04:00:59.224Z,0.00
2022-08-14T04:02:02.098Z,0.00
2022-08-14T04:02:59.171Z,0.00
2022-08-14T04:03:59.163Z,0.00
2022-08-14T04:05:08.097Z,0.00
2022-08-14T04:06:00.161Z,0.00
2022-08-14T04:06:59.260Z,0.00
2022-08-14T04:08:08.578Z,0.00
2022-08-14T04:09:00.129Z,0.00
2022-08-14T04:09:59.100Z,0.00
2022-08-14T04:10:59.086Z,0.00
2022-08-14T04:11:59.527Z,0.00
2022-08-14T04:12:59.070Z,0.00
2022-08-14T04:13:59.060Z,0.00
2022-08-14T04:14:59.048Z,0.00
2022-08-14T04:16:01.687Z,0.00
2022-08-14T04:16:59.024Z,0.00
2022-08-14T04:17:59.017Z,0.00
2022-08-14T04:18:59.008Z,0.00
2022-08-14T04:19:58.997Z,0.00
2022-08-14T04:20:58.983Z,0.00
2022-08-14T04:22:03.640Z,0.00
2022-08-14T04:22:58.966Z,0.00
2022-08-14T04:23:58.950Z,5.62
2022-08-14T04:25:02.142Z,5.62
2022-08-14T04:25:58.932Z,5.62
2022-08-14T04:26:58.925Z,5.62
2022-08-14T04:28:02.277Z,5.62
2022-08-14T04:29:14.715Z,5.62
2022-08-14T04:29:59.913Z,5.62
2022-08-14T04:30:59.426Z,5.62
2022-08-14T04:32:59.108Z,5.62
2022-08-14T04:33:06.419Z,11.25
2022-08-14T04:33:58.849Z,11.25
2022-08-14T04:34:58.842Z,11.25
2022-08-14T04:35:58.829Z,11.25
2022-08-14T04:36:58.820Z,11.25
2022-08-14T04:37:58.816Z,11.25
2022-08-14T04:38:58.799Z,11.25
2022-08-14T04:39:58.999Z,16.87
2022-08-14T04:40:58.779Z,16.87
2022-08-14T04:41:58.770Z,16.87
2022-08-14T04:42:58.757Z,16.87
2022-08-14T04:43:58.747Z,16.87
2022-08-14T04:45:00.996Z,16.87
2022-08-14T04:45:58.727Z,22.50
2022-08-14T04:46:58.713Z,22.50
2022-08-14T04:47:58.706Z,22.50
2022-08-14T04:48:59.930Z,22.50
2022-08-14T04:49:58.683Z,22.50
2022-08-14T04:50:58.675Z,28.12
2022-08-14T04:51:58.670Z,28.12
2022-08-14T04:52:58.653Z,28.12
2022-08-14T04:53:58.645Z,28.12
2022-08-14T04:54:58.636Z,28.12
2022-08-14T04:55:58.623Z,33.75
2022-08-14T04:56:58.613Z,33.75
2022-08-14T04:57:58.601Z,33.75
2022-08-14T04:58:58.595Z,33.75
2022-08-14T04:59:58.581Z,33.75
2022-08-14T05:00:58.573Z,33.75
2022-08-14T05:01:58.654Z,39.37
2022-08-14T05:02:58.554Z,39.37
2022-08-14T05:03:58.541Z,39.37
2022-08-14T05:04:58.934Z,39.37
2022-08-14T05:05:58.521Z,39.37
2022-08-14T05:06:58.511Z,39.37
2022-08-14T05:08:01.798Z,45.00
2022-08-14T05:09:00.282Z,45.00
2022-08-14T05:09:58.481Z,45.00
2022-08-14T05:10:58.473Z,45.00
2022-08-14T05:13:02.847Z,45.00
2022-08-14T05:13:13.606Z,45.00
2022-08-14T05:14:34.437Z,50.62
2022-08-14T05:14:59.450Z,50.62
2022-08-14T05:15:58.419Z,50.62
2022-08-14T05:17:01.674Z,50.62
2022-08-14T05:18:03.592Z,50.62
2022-08-14T05:19:18.820Z,50.62
2022-08-14T05:21:54.211Z,56.25
2022-08-14T05:21:56.397Z,56.25
2022-08-14T05:22:16.035Z,56.25
2022-08-14T05:22:59.382Z,56.25
2022-08-14T05:23:58.341Z,56.25
2022-08-14T05:24:58.332Z,56.25
2022-08-14T05:25:58.322Z,61.87
2022-08-14T05:26:58.315Z,61.87
2022-08-14T05:27:58.302Z,61.87
2022-08-14T05:28:58.295Z,61.87
2022-08-14T05:29:58.287Z,61.87
2022-08-14T05:30:58.276Z,61.87
2022-08-14T05:31:58.460Z,67.50
2022-08-14T05:32:58.252Z,67.50
2022-08-14T05:33:58.241Z,67.50
2022-08-14T05:34:58.739Z,67.50
2022-08-14T05:35:58.222Z,67.50
2022-08-14T05:37:01.816Z,67.50
2022-08-14T05:37:58.197Z,67.50
2022-08-14T05:38:58.191Z,67.50
2022-08-14T05:39:58.359Z,73.12
2022-08-14T05:40:58.167Z,73.12
2022-08-14T05:41:58.171Z,73.12
2022-08-14T05:42:58.195Z,73.12
2022-08-14T05:43:58.135Z,73.12
2022-08-14T05:44:58.125Z,73.12
2022-08-14T05:45:58.116Z,73.12
2022-08-14T05:46:58.103Z,73.12
2022-08-14T05:47:58.092Z,73.12
2022-08-14T05:48:58.080Z,78.75
2022-08-14T05:49:58.073Z,78.75
2022-08-14T05:50:58.059Z,78.75
2022-08-14T05:51:58.052Z,78.75
2022-08-14T05:52:58.041Z,78.75
2022-08-14T05:54:01.602Z,78.75
2022-08-14T05:54:59.041Z,78.75
2022-08-14T05:55:58.012Z,78.75
2022-08-14T05:56:58.002Z,78.75
2022-08-14T05:57:59.568Z,78.75
2022-08-14T05:58:57.980Z,78.75
2022-08-14T05:59:57.969Z,84.37
2022-08-14T06:00:57.961Z,84.37
2022-08-14T06:01:57.969Z,84.37
2022-08-14T06:02:57.939Z,84.37
2022-08-14T06:03:57.934Z,84.37
2022-08-14T06:04:58.674Z,84.37
2022-08-14T06:05:57.910Z,84.37
2022-08-14T06:06:57.932Z,84.37
2022-08-14T06:07:57.882Z,84.37
2022-08-14T06:08:57.874Z,84.37
2022-08-14T06:10:01.626Z,84.37
2022-08-14T06:10:58.874Z,84.37
2022-08-14T06:11:57.843Z,84.37
2022-08-14T06:13:05.778Z,90.00
2022-08-14T06:13:58.845Z,90.00
2022-08-14T06:14:57.809Z,90.00
2022-08-14T06:15:57.799Z,90.00
2022-08-14T06:16:57.793Z,90.00
2022-08-14T06:17:59.018Z,90.00
2022-08-14T06:18:59.507Z,90.00
2022-08-14T06:19:57.761Z,90.00
2022-08-14T06:20:57.750Z,90.00
2022-08-14T06:21:58.411Z,90.00
2022-08-14T06:22:57.730Z,90.00
2022-08-14T06:23:59.544Z,90.00
2022-08-14T06:24:57.711Z,95.62
2022-08-14T06:25:57.698Z,95.62
2022-08-14T06:27:04.286Z,95.62
2022-08-14T06:28:00.839Z,95.62
2022-08-14T06:28:57.670Z,95.62
2022-08-14T06:29:57.659Z,95.62
2022-08-14T06:30:57.696Z,95.62
2022-08-14T06:32:00.425Z,95.62
2022-08-14T06:32:58.646Z,95.62
2022-08-14T06:35:03.660Z,95.62
2022-08-14T06:35:11.362Z,95.62
2022-08-14T06:35:57.598Z,95.62
2022-08-14T06:36:57.589Z,95.62
2022-08-14T06:37:57.584Z,95.62
2022-08-14T06:38:57.573Z,101.25
2022-08-14T06:39:57.618Z,101.25
2022-08-14T06:40:57.546Z,101.25
2022-08-14T06:41:59.873Z,101.25
2022-08-14T06:43:00.203Z,101.25
2022-08-14T06:43:57.518Z,101.25
2022-08-14T06:44:57.511Z,101.25
2022-08-14T06:45:57.498Z,101.25
2022-08-14T06:46:57.490Z,101.25
2022-08-14T06:47:58.561Z,106.87
2022-08-14T06:48:57.467Z,106.87
2022-08-14T06:49:58.244Z,106.87
2022-08-14T06:50:57.992Z,106.87
2022-08-14T06:51:57.455Z,106.87
2022-08-14T06:52:57.429Z,106.87
2022-08-14T06:53:57.415Z,112.50
2022-08-14T06:54:57.406Z,112.50
2022-08-14T06:56:00.675Z,112.50
2022-08-14T06:56:57.398Z,118.12
2022-08-14T06:57:57.645Z,129.37
2022-08-14T06:58:57.367Z,135.00
2022-08-14T06:59:57.365Z,135.00
2022-08-14T07:00:57.386Z,135.00
2022-08-14T07:01:57.418Z,135.00
2022-08-14T07:02:57.327Z,140.62
2022-08-14T07:03:57.319Z,140.62
2022-08-14T07:04:57.305Z,140.62
2022-08-14T07:05:58.445Z,140.62
2022-08-14T07:06:59.004Z,140.62
2022-08-14T07:07:57.273Z,140.62
2022-08-14T07:08:57.265Z,146.25
2022-08-14T07:09:57.254Z,146.25
2022-08-14T07:10:57.244Z,146.25
2022-08-14T07:11:57.883Z,146.25
2022-08-14T07:13:03.671Z,146.25
2022-08-14T07:13:58.231Z,151.87
2022-08-14T07:14:58.728Z,151.87
2022-08-14T07:15:58.528Z,151.87
2022-08-14T07:16:57.182Z,151.87
2022-08-14T07:17:57.255Z,157.50
2022-08-14T07:18:57.163Z,157.50
2022-08-14T07:19:57.157Z,157.50
2022-08-14T07:20:57.146Z,157.50
2022-08-14T07:21:57.136Z,163.12
2022-08-14T07:22:57.290Z,163.12
2022-08-14T07:23:57.113Z,163.12
2022-08-14T07:24:57.106Z,163.12
2022-08-14T07:25:58.345Z,168.75
2022-08-14T07:26:57.085Z,168.75
2022-08-14T07:27:57.074Z,168.75
2022-08-14T07:28:57.063Z,168.75
2022-08-14T07:29:57.054Z,174.37
2022-08-14T07:30:57.041Z,174.37
2022-08-14T07:31:58.053Z,174.37
2022-08-14T07:32:57.021Z,174.37
2022-08-14T07:33:57.011Z,174.37
2022-08-14T07:34:57.002Z,168.75
2022-08-14T07:35:58.398Z,168.75
2022-08-14T07:37:00.594Z,168.75
2022-08-14T07:37:56.972Z,163.12
2022-08-14T07:38:56.961Z,168.75
2022-08-14T07:39:57.017Z,174.37
2022-08-14T07:40:56.940Z,191.25
2022-08-14T07:41:56.931Z,185.62
2022-08-14T07:42:56.923Z,180.00
2022-08-14T07:43:57.936Z,196.87
2022-08-14T07:44:56.903Z,202.50
2022-08-14T07:45:56.914Z,208.12
2022-08-14T07:46:56.882Z,219.37
2022-08-14T07:47:56.870Z,213.75
2022-08-14T07:48:56.959Z,225.00
2022-08-14T07:49:56.852Z,225.00
2022-08-14T07:51:00.707Z,213.75
2022-08-14T07:51:57.856Z,236.25
2022-08-14T07:52:56.820Z,241.87
2022-08-14T07:53:57.384Z,241.87
2022-08-14T07:54:56.803Z,241.87
2022-08-14T07:56:09.131Z,241.87
2022-08-14T07:56:57.805Z,236.25
2022-08-14T07:57:56.775Z,230.62
2022-08-14T07:58:58.532Z,236.25
2022-08-14T07:59:56.756Z,241.87
2022-08-14T08:00:56.745Z,247.50
2022-08-14T08:01:57.332Z,253.12
2022-08-14T08:02:58.284Z,253.12
2022-08-14T08:03:59.599Z,247.50
2022-08-14T08:04:59.170Z,253.12
2022-08-14T08:05:56.695Z,253.12
2022-08-14T08:06:56.687Z,258.75
2022-08-14T08:07:56.677Z,253.12
2022-08-14T08:09:01.363Z,253.12
2022-08-14T08:09:56.781Z,258.75
2022-08-14T08:11:03.194Z,253.12
2022-08-14T08:11:57.410Z,258.75
2022-08-14T08:12:56.625Z,253.12
2022-08-14T08:13:56.616Z,258.75
2022-08-14T08:15:02.732Z,258.75
2022-08-14T08:15:57.654Z,264.37
2022-08-14T08:16:56.588Z,264.37
2022-08-14T08:18:01.430Z,264.37
2022-08-14T08:19:02.925Z,258.75
2022-08-14T08:19:57.578Z,270.00
2022-08-14T08:20:56.547Z,258.75
2022-08-14T08:21:56.536Z,270.00
2022-08-14T08:22:56.697Z,281.25
2022-08-14T08:23:56.518Z,258.75
2022-08-14T08:24:57.953Z,275.62
2022-08-14T08:25:56.498Z,258.75
2022-08-14T08:26:56.488Z,264.37
2022-08-14T08:27:56.476Z,258.75
2022-08-14T08:28:56.468Z,275.62
2022-08-14T08:29:56.459Z,275.62
2022-08-14T08:30:56.528Z,275.62
2022-08-14T08:31:56.441Z,281.25
2022-08-14T08:32:56.430Z,275.62
2022-08-14T08:33:56.418Z,286.87
2022-08-14T08:34:56.414Z,286.87
2022-08-14T08:35:56.403Z,281.25
2022-08-14T08:36:56.836Z,298.12
2022-08-14T08:38:01.195Z,303.75
2022-08-14T08:39:18.619Z,298.12
2022-08-14T08:40:02.563Z,292.50
2022-08-14T08:40:56.443Z,298.12
2022-08-14T08:41:56.345Z,309.37
2022-08-14T08:42:59.136Z,309.37
2022-08-14T08:43:56.325Z,309.37
2022-08-14T08:44:56.316Z,309.37
2022-08-14T08:45:56.310Z,303.75
2022-08-14T08:46:56.299Z,303.75
2022-08-14T08:47:56.290Z,309.37
2022-08-14T08:49:22.000Z,303.75
2022-08-14T08:50:31.160Z,303.75
2022-08-14T08:51:21.976Z,298.12
2022-08-14T08:52:24.879Z,292.50
2022-08-14T08:53:21.960Z,298.12
2022-08-14T08:54:26.598Z,292.50
2022-08-14T08:55:22.959Z,298.12
2022-08-14T08:56:30.650Z,292.50
2022-08-14T08:57:24.141Z,292.50
2022-08-14T08:58:25.368Z,292.50
2022-08-14T08:59:21.949Z,292.50
2022-08-14T09:00:24.456Z,286.87
2022-08-14T09:01:21.942Z,281.25
2022-08-14T09:02:21.869Z,281.25
2022-08-14T09:03:21.859Z,286.87
2022-08-14T09:04:21.850Z,286.87
2022-08-14T09:05:21.839Z,286.87
2022-08-14T09:07:00.260Z,292.50
2022-08-14T09:07:22.842Z,292.50
2022-08-14T09:08:31.743Z,298.12
2022-08-14T09:09:21.802Z,292.50
2022-08-14T09:10:22.328Z,298.12
2022-08-14T09:11:21.781Z,303.75
2022-08-14T09:12:21.771Z,303.75
2022-08-14T09:13:21.762Z,309.37
2022-08-14T09:14:21.754Z,303.75
2022-08-14T09:15:21.745Z,303.75
2022-08-14T09:16:21.878Z,303.75
2022-08-14T09:17:26.014Z,303.75
2022-08-14T09:18:21.716Z,309.37
2022-08-14T09:19:21.707Z,309.37
2022-08-14T09:20:26.362Z,303.75
2022-08-14T09:21:24.074Z,309.37
2022-08-14T09:22:35.348Z,298.12
2022-08-14T09:23:27.487Z,298.12
2022-08-14T09:24:29.477Z,309.37
2022-08-14T09:26:01.010Z,320.62
2022-08-14T09:26:21.766Z,320.62
2022-08-14T09:27:22.319Z,326.25
2022-08-14T09:28:21.620Z,331.87
2022-08-14T09:29:23.573Z,337.50
2022-08-14T09:30:33.197Z,337.50
2022-08-14T09:31:22.614Z,337.50
2022-08-14T09:32:57.922Z,343.12
2022-08-14T09:33:22.713Z,354.37
2022-08-14T09:34:28.181Z,354.37
2022-08-14T09:35:22.579Z,360.00
2022-08-14T09:36:21.551Z,365.62
2022-08-14T09:37:21.536Z,365.62
2022-08-14T09:38:26.049Z,365.62
2022-08-14T09:39:23.578Z,365.62
2022-08-14T09:40:21.819Z,371.25
2022-08-14T09:41:21.499Z,376.87
2022-08-14T09:42:33.290Z,376.87
2022-08-14T09:43:22.598Z,382.50
2022-08-14T09:44:21.474Z,382.50
2022-08-14T09:45:21.466Z,376.87
2022-08-14T09:46:25.566Z,376.87
2022-08-14T09:47:21.444Z,376.87
2022-08-14T09:48:21.435Z,399.37
2022-08-14T09:49:22.446Z,388.12
2022-08-14T09:50:21.416Z,388.12
2022-08-14T09:51:21.407Z,382.50
2022-08-14T09:52:23.693Z,382.50
2022-08-14T09:53:21.393Z,365.62
2022-08-14T09:54:23.634Z,365.62
2022-08-14T09:55:21.549Z,365.62
2022-08-14T09:56:30.102Z,371.25
2022-08-14T09:57:21.354Z,365.62
2022-08-14T09:58:23.072Z,360.00
2022-08-14T09:59:21.335Z,360.00
2022-08-14T10:00:29.573Z,360.00
2022-08-14T10:01:22.341Z,354.37
2022-08-14T10:02:21.397Z,348.75
2022-08-14T10:03:21.299Z,348.75
2022-08-14T10:04:33.120Z,348.75
2022-08-14T10:05:21.278Z,354.37
2022-08-14T10:06:21.273Z,354.37
2022-08-14T10:07:21.262Z,354.37
2022-08-14T10:08:26.127Z,360.00
2022-08-14T10:09:21.245Z,365.62
2022-08-14T10:10:23.047Z,360.00
2022-08-14T10:11:23.087Z,360.00
2022-08-14T10:12:29.176Z,365.62
2022-08-14T10:13:21.206Z,371.25
2022-08-14T10:14:29.352Z,365.62
2022-08-14T10:15:21.190Z,371.25
2022-08-14T10:16:25.776Z,371.25
2022-08-14T10:17:21.169Z,371.25
2022-08-14T10:18:21.158Z,365.62
2022-08-14T10:19:21.148Z,371.25
2022-08-14T10:20:39.343Z,365.62
2022-08-14T10:21:22.577Z,371.25
2022-08-14T10:23:14.744Z,376.87
2022-08-14T10:23:23.278Z,393.75
2022-08-14T10:24:21.102Z,399.37
2022-08-14T10:25:22.564Z,410.62
2022-08-14T10:26:23.136Z,438.75
2022-08-14T10:27:21.073Z,433.12
2022-08-14T10:29:03.659Z,433.12
2022-08-14T10:29:23.605Z,438.75
2022-08-14T10:30:22.492Z,444.37
2022-08-14T10:31:25.701Z,472.50
2022-08-14T10:32:28.987Z,466.87
2022-08-14T10:33:22.039Z,438.75
2022-08-14T10:34:25.242Z,376.87
2022-08-14T10:35:23.099Z,371.25
2022-08-14T10:36:35.101Z,371.25
2022-08-14T10:37:23.724Z,371.25
2022-08-14T10:38:20.970Z,365.62
2022-08-14T10:39:21.010Z,365.62
2022-08-14T10:40:38.803Z,405.00
2022-08-14T10:41:21.967Z,410.62
2022-08-14T10:42:21.376Z,371.25
2022-08-14T10:43:22.669Z,354.37
2022-08-14T10:44:21.860Z,343.12
2022-08-14T10:45:20.908Z,331.87
2022-08-14T10:46:59.515Z,320.62
2022-08-14T10:47:39.725Z,315.00
2022-08-14T10:48:24.119Z,315.00
2022-08-14T10:49:21.890Z,315.00
2022-08-14T10:50:20.861Z,320.62
2022-08-14T10:51:20.852Z,337.50
2022-08-14T10:52:22.074Z,354.37
2022-08-14T10:53:20.834Z,365.62
2022-08-14T10:54:36.055Z,376.87
2022-08-14T10:55:21.043Z,393.75
2022-08-14T10:56:21.520Z,433.12
2022-08-14T10:57:21.812Z,472.50
2022-08-14T10:58:20.785Z,461.25
2022-08-14T10:59:20.775Z,455.62
2022-08-14T11:00:30.105Z,427.50
2022-08-14T11:01:21.775Z,421.87
2022-08-14T11:02:36.140Z,444.37
2022-08-14T11:03:26.882Z,450.00
2022-08-14T11:04:26.183Z,495.00
2022-08-14T11:05:21.738Z,410.62
2022-08-14T11:06:20.711Z,416.25
2022-08-14T11:07:21.463Z,382.50
2022-08-14T11:08:20.690Z,376.87
2022-08-14T11:09:20.679Z,427.50
2022-08-14T11:10:20.682Z,405.00
2022-08-14T11:11:20.663Z,427.50
2022-08-14T11:12:33.818Z,461.25
2022-08-14T11:13:23.823Z,450.00
2022-08-14T11:14:22.897Z,427.50
2022-08-14T11:15:20.624Z,427.50
2022-08-14T11:16:20.617Z,427.50
2022-08-14T11:17:22.012Z,438.75
2022-08-14T11:18:30.027Z,438.75
2022-08-14T11:19:21.607Z,450.00
2022-08-14T11:20:20.582Z,466.87
2022-08-14T11:21:21.248Z,466.87
2022-08-14T11:22:56.233Z,421.87
2022-08-14T11:23:21.567Z,450.00
2022-08-14T11:24:55.025Z,450.00
2022-08-14T11:25:21.550Z,455.62
2022-08-14T11:26:20.523Z,466.87
2022-08-14T11:27:20.515Z,438.75
2022-08-14T11:28:20.914Z,427.50
2022-08-14T11:29:21.605Z,421.87
2022-08-14T11:30:51.144Z,416.25
2022-08-14T11:31:20.474Z,399.37
2022-08-14T11:32:20.465Z,365.62
2022-08-14T11:33:20.459Z,360.00
2022-08-14T11:34:30.181Z,348.75
2022-08-14T11:35:20.438Z,348.75
2022-08-14T11:36:20.428Z,348.75
2022-08-14T11:37:25.776Z,365.62
2022-08-14T11:38:21.650Z,388.12
2022-08-14T11:39:33.609Z,416.25
2022-08-14T11:40:28.677Z,455.62
2022-08-14T11:41:21.403Z,466.87
2022-08-14T11:42:56.511Z,444.37
2022-08-14T11:43:22.717Z,506.25
2022-08-14T11:44:45.328Z,472.50
2022-08-14T11:45:23.487Z,427.50
2022-08-14T11:46:30.556Z,331.87
2022-08-14T11:47:21.343Z,298.12
2022-08-14T11:49:03.049Z,275.62
2022-08-14T11:49:22.098Z,264.37
2022-08-14T11:50:25.017Z,258.75
2022-08-14T11:51:23.906Z,253.12
2022-08-14T11:52:21.694Z,247.50
2022-08-14T11:53:20.268Z,247.50
2022-08-14T11:54:20.360Z,241.87
2022-08-14T11:55:25.444Z,241.87
2022-08-14T11:56:25.573Z,241.87
2022-08-14T11:57:20.229Z,241.87
2022-08-14T11:58:24.200Z,241.87
2022-08-14T11:59:20.211Z,241.87
2022-08-14T12:00:20.200Z,241.87
2022-08-14T12:01:21.213Z,241.87
2022-08-14T12:03:00.689Z,241.87
2022-08-14T12:03:37.805Z,241.87
2022-08-14T12:04:21.566Z,241.87
2022-08-14T12:05:20.261Z,241.87
2022-08-14T12:06:28.538Z,241.87
2022-08-14T12:07:21.155Z,236.25
2022-08-14T12:08:24.435Z,236.25
2022-08-14T12:09:20.113Z,230.62
2022-08-14T12:10:26.727Z,230.62
2022-08-14T12:11:20.099Z,230.62
2022-08-14T12:12:35.295Z,225.00
2022-08-14T12:13:22.436Z,225.00
2022-08-14T12:14:34.708Z,230.62
2022-08-14T12:15:21.078Z,230.62
2022-08-14T12:16:20.692Z,236.25
2022-08-14T12:17:23.445Z,241.87
2022-08-14T12:18:20.060Z,241.87
2022-08-14T12:19:20.020Z,247.50
2022-08-14T12:20:30.208Z,241.87
2022-08-14T12:21:21.067Z,236.25
2022-08-14T12:22:25.850Z,236.25
2022-08-14T12:23:21.000Z,230.62
2022-08-14T12:24:35.692Z,230.62
2022-08-14T12:25:19.961Z,230.62
2022-08-14T12:26:39.845Z,230.62
2022-08-14T12:27:25.129Z,236.25
2022-08-14T12:28:27.092Z,241.87
2022-08-14T12:29:19.918Z,247.50
2022-08-14T12:30:20.925Z,253.12
2022-08-14T12:31:20.608Z,264.37
2022-08-14T12:32:19.892Z,270.00
2022-08-14T12:33:19.878Z,281.25
2022-08-14T12:34:20.517Z,286.87
2022-08-14T12:35:19.869Z,298.12
2022-08-14T12:36:20.665Z,309.37
2022-08-14T12:37:19.847Z,326.25
2022-08-14T12:38:21.027Z,326.25
2022-08-14T12:39:19.873Z,326.25
2022-08-14T12:40:20.766Z,326.25
2022-08-14T12:41:21.289Z,331.87
2022-08-14T12:42:27.274Z,337.50
2022-08-14T12:43:19.794Z,343.12
2022-08-14T12:44:20.410Z,354.37
2022-08-14T12:45:19.760Z,382.50
2022-08-14T12:46:22.306Z,376.87
2022-08-14T12:47:20.760Z,382.50
2022-08-14T12:48:21.295Z,388.12
2022-08-14T12:49:19.719Z,360.00
2022-08-14T12:50:20.323Z,348.75
2022-08-14T12:51:19.698Z,331.87
2022-08-14T12:52:19.688Z,326.25
2022-08-14T12:53:20.702Z,309.37
2022-08-14T12:54:27.778Z,303.75
2022-08-14T12:55:20.680Z,298.12
2022-08-14T12:56:32.745Z,298.12
2022-08-14T12:57:20.416Z,292.50
2022-08-14T12:58:35.013Z,286.87
2022-08-14T12:59:19.623Z,286.87
2022-08-14T13:00:22.688Z,281.25
2022-08-14T13:01:20.553Z,275.62
2022-08-14T13:02:19.660Z,270.00
2022-08-14T13:03:19.584Z,264.37
2022-08-14T13:04:19.571Z,264.37
2022-08-14T13:05:19.567Z,258.75
2022-08-14T13:06:19.557Z,253.12
2022-08-14T13:07:19.546Z,247.50
2022-08-14T13:08:34.187Z,236.25
2022-08-14T13:09:20.546Z,230.62
2022-08-14T13:10:47.131Z,219.37
2022-08-14T13:11:20.527Z,213.75
2022-08-14T13:12:31.888Z,208.12
2022-08-14T13:13:19.732Z,202.50
2022-08-14T13:14:22.440Z,196.87
2022-08-14T13:15:20.501Z,191.25
2022-08-14T13:16:20.297Z,191.25
2022-08-14T13:17:20.465Z,191.25
2022-08-14T13:18:19.439Z,196.87
2022-08-14T13:19:19.809Z,202.50
2022-08-14T13:20:24.700Z,213.75
2022-08-14T13:21:20.428Z,219.37
2022-08-14T13:22:32.322Z,230.62
2022-08-14T13:23:30.365Z,236.25
2022-08-14T13:24:20.400Z,247.50
2022-08-14T13:25:19.363Z,253.12
2022-08-14T13:26:19.355Z,253.12
2022-08-14T13:27:19.344Z,264.37
2022-08-14T13:28:33.347Z,258.75
2022-08-14T13:29:19.328Z,258.75
2022-08-14T13:30:23.505Z,253.12
2022-08-14T13:31:19.308Z,247.50
2022-08-14T13:32:19.297Z,241.87
2022-08-14T13:33:19.288Z,230.62
2022-08-14T13:34:19.282Z,225.00
2022-08-14T13:35:19.270Z,219.37
2022-08-14T13:36:23.851Z,213.75
2022-08-14T13:37:19.253Z,208.12
2022-08-14T13:38:19.242Z,208.12
2022-08-14T13:39:19.234Z,208.12
2022-08-14T13:40:19.224Z,208.12
2022-08-14T13:41:19.214Z,208.12
2022-08-14T13:42:19.210Z,208.12
2022-08-14T13:43:19.196Z,208.12
2022-08-14T13:44:22.066Z,208.12
2022-08-14T13:45:20.202Z,208.12
2022-08-14T13:46:19.167Z,202.50
2022-08-14T13:47:19.157Z,202.50
2022-08-14T13:48:32.597Z,202.50
2022-08-14T13:49:19.140Z,202.50
2022-08-14T13:50:20.545Z,196.87
2022-08-14T13:51:19.120Z,191.25
2022-08-14T13:52:52.867Z,180.00
2022-08-14T13:53:19.104Z,174.37
2022-08-14T13:54:19.094Z,168.75
2022-08-14T13:55:19.090Z,168.75
2022-08-14T13:56:26.370Z,163.12
2022-08-14T13:57:20.081Z,157.50
2022-08-14T13:58:34.006Z,151.87
2022-08-14T13:59:20.614Z,146.25
2022-08-14T14:00:21.574Z,146.25
2022-08-14T14:01:19.244Z,140.62
2022-08-14T14:02:31.877Z,140.62
2022-08-14T14:03:20.022Z,140.62
2022-08-14T14:04:20.227Z,140.62
2022-08-14T14:05:18.981Z,140.62
2022-08-14T14:06:18.973Z,146.25
2022-08-14T14:07:18.961Z,146.25
2022-08-14T14:08:46.326Z,146.25
2022-08-14T14:09:19.963Z,146.25
2022-08-14T14:10:18.933Z,146.25
2022-08-14T14:11:19.942Z,151.87
2022-08-14T14:12:38.065Z,151.87
2022-08-14T14:13:18.899Z,157.50
2022-08-14T14:14:44.867Z,157.50
2022-08-14T14:15:19.902Z,163.12
2022-08-14T14:16:26.025Z,163.12
2022-08-14T14:17:18.863Z,168.75
2022-08-14T14:18:33.834Z,174.37
2022-08-14T14:19:19.860Z,180.00
2022-08-14T14:20:34.569Z,180.00
2022-08-14T14:21:18.824Z,185.62
2022-08-14T14:23:01.019Z,191.25
2022-08-14T14:23:19.823Z,191.25
2022-08-14T14:24:18.791Z,196.87
2022-08-14T14:25:19.565Z,202.50
2022-08-14T14:26:23.206Z,208.12
2022-08-14T14:27:39.441Z,219.37
2022-08-14T14:28:24.099Z,230.62
2022-08-14T14:29:18.743Z,247.50
2022-08-14T14:30:46.987Z,253.12
2022-08-14T14:31:19.748Z,253.12
2022-08-14T14:32:21.458Z,264.37
2022-08-14T14:33:44.604Z,264.37
2022-08-14T14:34:29.659Z,264.37
2022-08-14T14:35:18.682Z,275.62
2022-08-14T14:36:21.500Z,275.62
2022-08-14T14:37:18.660Z,264.37
2022-08-14T14:38:18.655Z,270.00
2022-08-14T14:39:20.264Z,270.00
2022-08-14T14:40:54.692Z,275.62
2022-08-14T14:41:19.653Z,275.62
2022-08-14T14:42:18.615Z,275.62
2022-08-14T14:43:19.625Z,275.62
2022-08-14T14:44:18.591Z,281.25
2022-08-14T14:45:18.580Z,275.62
2022-08-14T14:46:18.573Z,264.37
2022-08-14T14:47:22.664Z,258.75
2022-08-14T14:48:18.560Z,258.75
2022-08-14T14:49:18.542Z,264.37
2022-08-14T14:50:18.535Z,264.37
2022-08-14T14:51:18.524Z,270.00
2022-08-14T14:52:26.529Z,264.37
2022-08-14T14:53:18.504Z,264.37
2022-08-14T14:54:18.495Z,258.75
2022-08-14T14:55:18.478Z,253.12
2022-08-14T14:56:51.118Z,247.50
2022-08-14T14:57:18.460Z,247.50
2022-08-14T14:58:20.369Z,247.50
2022-08-14T14:59:18.439Z,247.50
2022-08-14T15:00:19.475Z,247.50
2022-08-14T15:01:18.497Z,253.12
2022-08-14T15:02:18.411Z,258.75
2022-08-14T15:03:18.400Z,264.37
2022-08-14T15:04:20.955Z,264.37
2022-08-14T15:05:19.016Z,270.00
2022-08-14T15:06:18.527Z,270.00
2022-08-14T15:07:18.363Z,258.75
2022-08-14T15:08:26.888Z,258.75
2022-08-14T15:09:20.262Z,292.50
2022-08-14T15:10:26.973Z,270.00
2022-08-14T15:11:18.322Z,275.62
2022-08-14T15:12:34.645Z,281.25
2022-08-14T15:13:18.301Z,286.87
2022-08-14T15:14:54.749Z,292.50
2022-08-14T15:15:19.305Z,298.12
2022-08-14T15:16:18.269Z,315.00
2022-08-14T15:17:18.261Z,354.37
2022-08-14T15:18:37.342Z,354.37
2022-08-14T15:19:18.241Z,331.87
2022-08-14T15:20:29.890Z,303.75
2022-08-14T15:21:18.219Z,348.75
2022-08-14T15:22:18.208Z,371.25
2022-08-14T15:23:18.200Z,337.50
2022-08-14T15:24:24.411Z,292.50
2022-08-14T15:25:19.204Z,309.37
2022-08-14T15:26:23.814Z,264.37
2022-08-14T15:27:21.405Z,253.12
2022-08-14T15:28:20.906Z,247.50
2022-08-14T15:29:18.137Z,225.00
2022-08-14T15:30:24.382Z,208.12
2022-08-14T15:31:19.142Z,202.50
2022-08-14T15:32:22.828Z,196.87
2022-08-14T15:33:18.103Z,191.25
2022-08-14T15:34:43.614Z,191.25
2022-08-14T15:35:19.107Z,191.25
2022-08-14T15:36:25.875Z,196.87
2022-08-14T15:37:19.087Z,196.87
2022-08-14T15:38:18.088Z,213.75
2022-08-14T15:39:18.106Z,241.87
2022-08-14T15:40:22.267Z,196.87
2022-08-14T15:41:18.025Z,191.25
2022-08-14T15:42:18.012Z,185.62
2022-08-14T15:43:18.005Z,185.62
2022-08-14T15:44:25.214Z,180.00
2022-08-14T15:45:17.989Z,174.37
2022-08-14T15:46:41.150Z,174.37
2022-08-14T15:47:23.262Z,168.75
2022-08-14T15:48:22.517Z,157.50
2022-08-14T15:49:17.966Z,151.87
2022-08-14T15:50:19.344Z,146.25
2022-08-14T15:51:17.927Z,140.62
2022-08-14T15:52:32.660Z,135.00
2022-08-14T15:53:17.906Z,135.00
2022-08-14T15:54:17.893Z,129.37
2022-08-14T15:55:17.886Z,129.37
2022-08-14T15:56:33.124Z,129.37
2022-08-14T15:57:17.869Z,123.75
2022-08-14T15:58:17.854Z,123.75
2022-08-14T15:59:18.110Z,123.75
2022-08-14T16:00:39.984Z,123.75
2022-08-14T16:01:43.343Z,123.75
2022-08-14T16:02:18.815Z,129.37
2022-08-14T16:03:27.040Z,129.37
2022-08-14T16:04:18.815Z,129.37
2022-08-14T16:05:17.788Z,129.37
2022-08-14T16:06:18.163Z,129.37
2022-08-14T16:07:17.767Z,129.37
2022-08-14T16:08:26.973Z,129.37
2022-08-14T16:09:18.766Z,129.37
2022-08-14T16:10:29.726Z,129.37
2022-08-14T16:11:18.803Z,129.37
2022-08-14T16:12:17.713Z,123.75
2022-08-14T16:13:17.709Z,123.75
2022-08-14T16:14:21.163Z,123.75
2022-08-14T16:15:17.689Z,123.75
2022-08-14T16:16:49.339Z,118.12
2022-08-14T16:17:18.685Z,118.12
2022-08-14T16:18:18.439Z,112.50
2022-08-14T16:19:17.645Z,106.87
2022-08-14T16:20:41.017Z,101.25
2022-08-14T16:21:18.646Z,95.62
2022-08-14T16:22:58.838Z,90.00